Time;durP1;ratioP1;P1;durP2;ratioP2;P2;SDS_P1;SDS_P2;PMS_P1;PMS_P2;Temp;Humidity;BMP_temperature;BMP_pressure;BME280_temperature;BME280_humidity;BME280_pressure;Samples;Min_cycle;Max_cycle;Signal;HPM_P1;HPM_P2
2022/05/11 00:01:53;;;;;;;18.40;11.02;;;;;;;;;;5004193;28;20042;-63
2022/05/11 00:04:19;;;;;;;16.00;10.88;;;;;;;;;;5020926;28;20379;-63
2022/05/11 00:06:46;;;;;;;18.02;11.60;;;;;;;;;;5016788;28;20042;-63
2022/05/11 00:09:12;;;;;;;18.20;11.38;;;;;;;;;;5016239;28;20549;-63
2022/05/11 00:11:39;;;;;;;15.23;11.15;;;;;;;;;;5024791;28;21551;-64
2022/05/11 00:14:05;;;;;;;16.65;11.73;;;;;;;;;;4982714;28;20476;-62
2022/05/11 00:16:32;;;;;;;17.15;11.15;;;;;;;;;;5021033;28;20041;-61
2022/05/11 00:18:58;;;;;;;15.93;11.35;;;;;;;;;;5019859;28;20033;-61
2022/05/11 00:21:24;;;;;;;17.42;11.25;;;;;;;;;;5016739;28;20057;-62
2022/05/11 00:23:54;;;;;;;18.00;11.52;;;;;;;;;;5016243;28;20053;-62
2022/05/11 00:26:20;;;;;;;14.90;10.82;;;;;;;;;;5020945;28;20073;-62
2022/05/11 00:28:47;;;;;;;14.95;10.65;;;;;;;;;;5016395;28;20049;-61
2022/05/11 00:31:13;;;;;;;14.82;11.02;;;;;;;;;;5018696;28;20142;-63
2022/05/11 00:33:39;;;;;;;16.63;10.90;;;;;;;;;;5017759;28;20495;-63
2022/05/11 00:36:09;;;;;;;17.40;10.55;;;;;;;;;;5021863;28;20116;-62
2022/05/11 00:38:35;;;;;;;13.68;10.30;;;;;;;;;;5018241;28;20459;-61
2022/05/11 00:41:01;;;;;;;17.52;11.35;;;;;;;;;;5019097;28;20127;-62
2022/05/11 00:43:27;;;;;;;14.57;10.23;;;;;;;;;;5016339;28;20474;-62
2022/05/11 00:45:54;;;;;;;17.83;10.98;;;;;;;;;;5016547;28;20045;-63
2022/05/11 00:51:10;;;;;;;15.02;10.52;;;;;;;;;;5020998;28;20049;-62
2022/05/11 00:53:36;;;;;;;15.50;10.90;;;;;;;;;;5020666;28;20188;-62
2022/05/11 00:56:02;;;;;;;15.90;10.10;;;;;;;;;;5020642;28;20060;-63
2022/05/11 00:58:32;;;;;;;16.23;11.55;;;;;;;;;;5018801;28;20387;-63
2022/05/11 01:00:58;;;;;;;14.88;10.25;;;;;;;;;;4996066;28;20516;-63
2022/05/11 01:03:26;;;;;;;14.50;10.50;;;;;;;;;;5025292;28;20040;-63
2022/05/11 01:05:53;;;;;;;16.23;10.15;;;;;;;;;;5000295;28;20388;-62
2022/05/11 01:08:21;;;;;;;17.52;10.70;;;;;;;;;;5008828;28;20045;-61
2022/05/11 01:10:48;;;;;;;17.95;10.45;;;;;;;;;;5015914;28;20531;-62
2022/05/11 01:13:15;;;;;;;16.42;10.55;;;;;;;;;;5002746;28;20045;-64
2022/05/11 01:15:43;;;;;;;15.18;10.73;;;;;;;;;;5016500;28;20046;-62
2022/05/11 01:18:10;;;;;;;16.35;10.57;;;;;;;;;;5009693;28;20041;-63
2022/05/11 01:20:37;;;;;;;14.88;10.32;;;;;;;;;;5009724;28;20042;-63
2022/05/11 01:23:21;;;;;;;18.70;10.85;;;;;;;;;;5021811;28;20463;-62
2022/05/11 01:25:47;;;;;;;16.02;10.80;;;;;;;;;;5021061;28;20697;-62
2022/05/11 01:28:15;;;;;;;16.58;10.73;;;;;;;;;;5020087;28;20041;-62
2022/05/11 01:30:45;;;;;;;14.02;10.25;;;;;;;;;;5001854;28;20045;-62
2022/05/11 01:33:15;;;;;;;14.68;10.13;;;;;;;;;;5014317;28;20057;-62
2022/05/11 01:35:45;;;;;;;18.00;10.50;;;;;;;;;;5018200;28;20132;-61
2022/05/11 01:38:20;;;;;;;15.57;10.45;;;;;;;;;;5007510;28;20040;-63
2022/05/11 01:40:46;;;;;;;16.02;10.35;;;;;;;;;;5017081;28;20057;-62
2022/05/11 01:43:27;;;;;;;14.60;10.35;;;;;;;;;;5020404;28;20428;-63
2022/05/11 01:45:53;;;;;;;15.00;10.52;;;;;;;;;;5017708;28;20042;-62
2022/05/11 01:48:19;;;;;;;16.98;10.65;;;;;;;;;;5016496;28;20120;-62
2022/05/11 01:50:45;;;;;;;18.63;11.35;;;;;;;;;;5018432;28;20412;-62
2022/05/11 01:53:11;;;;;;;17.40;10.65;;;;;;;;;;4997095;28;20164;-61
2022/05/11 01:55:37;;;;;;;16.27;11.05;;;;;;;;;;5021448;28;20120;-64
2022/05/11 01:58:06;;;;;;;18.50;10.98;;;;;;;;;;5015128;28;20583;-63
2022/05/11 02:00:33;;;;;;;13.40;10.48;;;;;;;;;;5016743;28;20045;-62
2022/05/11 02:02:59;;;;;;;15.05;10.88;;;;;;;;;;5016013;28;20125;-62
2022/05/11 02:08:10;;;;;;;17.48;11.23;;;;;;;;;;5008876;28;20179;-62
2022/05/11 02:10:36;;;;;;;15.60;10.82;;;;;;;;;;5019417;28;20041;-62
2022/05/11 02:13:02;;;;;;;16.15;10.93;;;;;;;;;;5001213;28;20076;-63
2022/05/11 02:15:28;;;;;;;15.40;11.50;;;;;;;;;;4998827;28;20069;-63
2022/05/11 02:17:54;;;;;;;18.38;11.27;;;;;;;;;;5020762;28;20045;-63
2022/05/11 02:20:21;;;;;;;14.07;9.73;;;;;;;;;;5021102;28;20129;-62
2022/05/11 02:22:47;;;;;;;16.45;10.32;;;;;;;;;;5018841;28;20524;-63
2022/05/11 02:25:15;;;;;;;12.70;9.68;;;;;;;;;;5021735;28;20065;-61
2022/05/11 02:27:42;;;;;;;16.23;9.40;;;;;;;;;;5024239;28;20049;-62
2022/05/11 02:30:09;;;;;;;15.82;9.48;;;;;;;;;;5019591;28;20045;-62
2022/05/11 02:32:36;;;;;;;14.13;9.75;;;;;;;;;;4996677;28;20136;-63
2022/05/11 02:35:14;;;;;;;13.27;9.43;;;;;;;;;;5021608;28;20127;-63
2022/05/11 02:37:41;;;;;;;15.88;8.88;;;;;;;;;;5000788;28;20049;-62
2022/05/11 02:40:07;;;;;;;13.40;9.52;;;;;;;;;;5020179;28;20527;-62
2022/05/11 02:42:33;;;;;;;12.27;8.98;;;;;;;;;;5010627;28;20038;-62
2022/05/11 02:45:00;;;;;;;10.80;8.13;;;;;;;;;;4998170;28;20104;-62
2022/05/11 02:47:26;;;;;;;13.80;9.38;;;;;;;;;;5021466;28;20042;-63
2022/05/11 02:49:52;;;;;;;10.93;8.57;;;;;;;;;;5013608;28;20120;-62
2022/05/11 02:52:18;;;;;;;13.15;8.43;;;;;;;;;;5018311;28;20037;-62
2022/05/11 02:54:46;;;;;;;11.50;7.85;;;;;;;;;;5002444;28;20555;-62
2022/05/11 02:57:13;;;;;;;12.82;7.90;;;;;;;;;;5001538;28;20057;-62
2022/05/11 02:59:39;;;;;;;10.50;7.90;;;;;;;;;;5013538;28;20049;-62
2022/05/11 03:02:06;;;;;;;13.25;8.27;;;;;;;;;;5000812;28;20057;-63
2022/05/11 03:04:32;;;;;;;11.30;7.93;;;;;;;;;;5017810;28;20029;-63
2022/05/11 03:06:58;;;;;;;10.73;8.07;;;;;;;;;;5018602;28;20037;-62
2022/05/11 03:09:24;;;;;;;14.13;8.30;;;;;;;;;;5010136;28;20050;-62
2022/05/11 03:11:50;;;;;;;11.80;8.45;;;;;;;;;;5018266;28;20522;-60
2022/05/11 03:14:16;;;;;;;10.70;8.50;;;;;;;;;;5020486;28;20052;-61
2022/05/11 03:16:43;;;;;;;14.15;8.48;;;;;;;;;;5020147;28;20048;-61
2022/05/11 03:19:09;;;;;;;10.60;8.10;;;;;;;;;;5017769;28;20049;-62
2022/05/11 03:21:36;;;;;;;10.23;7.97;;;;;;;;;;5015630;28;20076;-61
2022/05/11 03:24:02;;;;;;;13.88;8.43;;;;;;;;;;5012074;28;20042;-63
2022/05/11 03:26:28;;;;;;;11.20;7.32;;;;;;;;;;5017308;28;20102;-62
2022/05/11 03:28:54;;;;;;;10.75;7.57;;;;;;;;;;5021056;28;20073;-61
2022/05/11 03:31:20;;;;;;;12.43;8.18;;;;;;;;;;5020273;28;20042;-62
2022/05/11 03:36:31;;;;;;;11.85;8.10;;;;;;;;;;5014567;28;20046;-61
2022/05/11 03:38:57;;;;;;;10.82;7.70;;;;;;;;;;5015187;28;20113;-62
2022/05/11 03:41:23;;;;;;;12.43;7.65;;;;;;;;;;5019649;28;20107;-62
2022/05/11 03:43:49;;;;;;;11.23;8.38;;;;;;;;;;5017987;28;20120;-61
2022/05/11 03:46:15;;;;;;;12.35;8.63;;;;;;;;;;5018826;28;20053;-63
2022/05/11 03:48:42;;;;;;;10.93;7.72;;;;;;;;;;5021035;28;20044;-62
2022/05/11 03:51:08;;;;;;;14.02;8.10;;;;;;;;;;5019744;28;20049;-62
2022/05/11 03:53:34;;;;;;;13.85;7.90;;;;;;;;;;5017402;28;20114;-62
2022/05/11 03:56:00;;;;;;;14.23;7.90;;;;;;;;;;5019584;28;20132;-61
2022/05/11 03:58:26;;;;;;;11.27;7.65;;;;;;;;;;5024665;28;20046;-63
2022/05/11 04:00:53;;;;;;;10.35;7.30;;;;;;;;;;5020429;28;20331;-62
2022/05/11 04:03:19;;;;;;;12.13;6.85;;;;;;;;;;5019971;28;20037;-62
2022/05/11 04:05:45;;;;;;;12.40;6.57;;;;;;;;;;4997374;28;20621;-62
2022/05/11 04:08:11;;;;;;;9.93;6.28;;;;;;;;;;5018298;28;20060;-61
2022/05/11 04:10:37;;;;;;;11.30;6.60;;;;;;;;;;5024554;28;20038;-61
2022/05/11 04:13:04;;;;;;;9.02;5.57;;;;;;;;;;5018837;28;20052;-61
2022/05/11 04:15:30;;;;;;;13.43;5.78;;;;;;;;;;5016186;28;20041;-62
2022/05/11 04:17:57;;;;;;;10.00;6.00;;;;;;;;;;5024830;28;20037;-62
2022/05/11 04:20:23;;;;;;;11.55;6.05;;;;;;;;;;5017260;28;20528;-62
2022/05/11 04:22:50;;;;;;;9.75;6.00;;;;;;;;;;5022968;28;20420;-62
2022/05/11 04:25:17;;;;;;;9.57;5.47;;;;;;;;;;5006009;28;20531;-62
2022/05/11 04:27:45;;;;;;;9.88;5.55;;;;;;;;;;5019119;28;20046;-62
2022/05/11 04:30:12;;;;;;;8.30;5.57;;;;;;;;;;5024660;28;20075;-62
2022/05/11 04:32:38;;;;;;;12.38;5.78;;;;;;;;;;5021613;28;21176;-62
2022/05/11 04:35:04;;;;;;;10.38;5.50;;;;;;;;;;5017672;28;20041;-63
2022/05/11 04:37:30;;;;;;;11.85;5.80;;;;;;;;;;5002199;28;20045;-63
2022/05/11 04:39:56;;;;;;;9.85;5.90;;;;;;;;;;5003175;28;20450;-63
2022/05/11 04:42:23;;;;;;;9.10;5.65;;;;;;;;;;5017657;28;20038;-63
2022/05/11 04:44:49;;;;;;;12.52;6.15;;;;;;;;;;5025356;28;20049;-63
2022/05/11 04:47:19;;;;;;;10.45;6.00;;;;;;;;;;5022552;28;20107;-63
2022/05/11 04:49:45;;;;;;;11.02;5.97;;;;;;;;;;5017940;28;20053;-63
2022/05/11 04:52:13;;;;;;;9.75;5.45;;;;;;;;;;5017816;28;20475;-64
2022/05/11 04:54:40;;;;;;;12.55;5.57;;;;;;;;;;5002228;28;20049;-63
2022/05/11 04:57:07;;;;;;;10.32;5.97;;;;;;;;;;5018338;28;20045;-63
2022/05/11 04:59:33;;;;;;;11.13;5.88;;;;;;;;;;4984589;28;20107;-64
2022/05/11 05:02:00;;;;;;;10.68;5.82;;;;;;;;;;5019941;28;20049;-63
2022/05/11 05:04:27;;;;;;;15.00;6.00;;;;;;;;;;5022328;28;20037;-61
2022/05/11 05:06:53;;;;;;;11.30;5.60;;;;;;;;;;5020965;28;20562;-63
2022/05/11 05:09:19;;;;;;;7.85;5.43;;;;;;;;;;5014783;28;20041;-64
2022/05/11 05:11:45;;;;;;;10.52;5.60;;;;;;;;;;5022947;28;20073;-62
2022/05/11 05:14:12;;;;;;;10.73;5.50;;;;;;;;;;5005799;28;20060;-64
2022/05/11 05:16:39;;;;;;;10.18;5.28;;;;;;;;;;5020880;28;20357;-63
2022/05/11 05:19:05;;;;;;;9.23;5.40;;;;;;;;;;5020748;28;20042;-63
2022/05/11 05:21:32;;;;;;;12.45;5.63;;;;;;;;;;5000666;28;20460;-63
2022/05/11 05:23:58;;;;;;;10.30;5.10;;;;;;;;;;5013916;28;20050;-63
2022/05/11 05:26:24;;;;;;;10.38;5.38;;;;;;;;;;5018324;28;20038;-63
2022/05/11 05:31:35;;;;;;;16.05;5.20;;;;;;;;;;5018300;28;20411;-63
2022/05/11 05:34:02;;;;;;;12.60;5.35;;;;;;;;;;5019612;28;20037;-63
2022/05/11 05:36:28;;;;;;;8.95;5.05;;;;;;;;;;5015274;28;20041;-64
2022/05/11 05:38:55;;;;;;;13.02;4.70;;;;;;;;;;5006927;28;20069;-61
2022/05/11 05:41:21;;;;;;;13.40;5.18;;;;;;;;;;5005336;28;20073;-61
2022/05/11 05:43:47;;;;;;;15.77;4.90;;;;;;;;;;5017213;28;20038;-62
2022/05/11 05:46:16;;;;;;;13.02;5.00;;;;;;;;;;5001205;28;20292;-61
2022/05/11 05:48:42;;;;;;;13.30;5.00;;;;;;;;;;5017430;28;20049;-62
2022/05/11 05:51:09;;;;;;;11.65;4.97;;;;;;;;;;5013003;28;20480;-61
2022/05/11 05:53:35;;;;;;;11.82;4.90;;;;;;;;;;5029386;28;20418;-60
2022/05/11 05:56:02;;;;;;;10.88;4.60;;;;;;;;;;5030948;28;20083;-61
2022/05/11 05:58:28;;;;;;;13.98;4.78;;;;;;;;;;5028476;28;20045;-61
2022/05/11 06:00:55;;;;;;;15.77;4.40;;;;;;;;;;5030585;28;20439;-61
2022/05/11 06:03:26;;;;;;;12.02;4.28;;;;;;;;;;5030597;28;20048;-61
2022/05/11 06:05:52;;;;;;;18.52;5.20;;;;;;;;;;5030162;28;20037;-61
2022/05/11 06:08:18;;;;;;;15.00;4.40;;;;;;;;;;5020225;28;20396;-60
2022/05/11 06:10:45;;;;;;;14.10;4.32;;;;;;;;;;5009191;28;20446;-62
2022/05/11 06:13:12;;;;;;;12.05;4.03;;;;;;;;;;5019575;28;20077;-61
2022/05/11 06:15:39;;;;;;;12.93;4.80;;;;;;;;;;5009333;28;20044;-61
2022/05/11 06:18:09;;;;;;;14.45;4.68;;;;;;;;;;5009285;28;20710;-61
2022/05/11 06:20:36;;;;;;;15.30;5.00;;;;;;;;;;5017143;28;20057;-60
2022/05/11 06:23:03;;;;;;;17.38;4.25;;;;;;;;;;5012427;28;20053;-62
2022/05/11 06:25:30;;;;;;;21.77;4.13;;;;;;;;;;5008957;28;20484;-61
2022/05/11 06:27:58;;;;;;;19.85;4.65;;;;;;;;;;5008521;28;20492;-62
2022/05/11 06:30:25;;;;;;;19.52;4.38;;;;;;;;;;5008249;28;20048;-61
2022/05/11 06:32:51;;;;;;;25.05;4.90;;;;;;;;;;5008890;28;20057;-61
2022/05/11 06:35:17;;;;;;;23.60;5.03;;;;;;;;;;5010599;28;20112;-60
2022/05/11 06:37:47;;;;;;;14.25;4.50;;;;;;;;;;5008382;28;20149;-60
2022/05/11 06:40:14;;;;;;;15.35;4.40;;;;;;;;;;5025663;28;20476;-61
2022/05/11 06:42:41;;;;;;;14.50;4.70;;;;;;;;;;5010759;28;20399;-60
2022/05/11 06:45:08;;;;;;;16.63;4.28;;;;;;;;;;4996928;28;20037;-61
2022/05/11 06:47:34;;;;;;;13.25;4.20;;;;;;;;;;5023577;28;20050;-61
2022/05/11 06:50:00;;;;;;;10.77;4.30;;;;;;;;;;5014378;28;20056;-61
2022/05/11 06:52:26;;;;;;;12.35;4.82;;;;;;;;;;5019654;28;20046;-62
2022/05/11 07:00:23;;;;;;;10.98;3.90;;;;;;;;;;5022250;28;20129;-62
2022/05/11 07:02:49;;;;;;;14.13;4.35;;;;;;;;;;5011697;28;20084;-61
2022/05/11 07:05:17;;;;;;;12.23;4.95;;;;;;;;;;5021848;28;20439;-60
2022/05/11 07:07:43;;;;;;;9.77;4.05;;;;;;;;;;5021570;28;20132;-61
2022/05/11 07:10:10;;;;;;;13.35;4.20;;;;;;;;;;5015103;28;20129;-60
2022/05/11 07:12:38;;;;;;;15.15;4.80;;;;;;;;;;5010102;28;20050;-61
2022/05/11 07:15:06;;;;;;;11.02;4.32;;;;;;;;;;5018291;28;20045;-62
2022/05/11 07:17:43;;;;;;;11.65;4.15;;;;;;;;;;4988451;28;20048;-63
2022/05/11 07:20:11;;;;;;;14.60;4.43;;;;;;;;;;4972774;28;20074;-62
2022/05/11 07:22:38;;;;;;;11.52;4.47;;;;;;;;;;4989253;28;20162;-62
2022/05/11 07:25:05;;;;;;;12.68;4.03;;;;;;;;;;4988068;28;20568;-62
2022/05/11 07:27:32;;;;;;;15.80;4.55;;;;;;;;;;4971891;28;20050;-62
2022/05/11 07:29:58;;;;;;;12.57;4.85;;;;;;;;;;4987983;28;20046;-63
2022/05/11 07:32:27;;;;;;;15.15;4.10;;;;;;;;;;4972113;28;20306;-62
2022/05/11 07:34:53;;;;;;;13.35;4.30;;;;;;;;;;4988198;28;20129;-64
2022/05/11 07:37:21;;;;;;;12.68;4.18;;;;;;;;;;4988251;28;20509;-63
2022/05/11 07:39:47;;;;;;;12.82;4.70;;;;;;;;;;4972073;28;20046;-63
2022/05/11 07:42:14;;;;;;;9.88;3.83;;;;;;;;;;4988167;28;20078;-63
2022/05/11 07:44:40;;;;;;;12.63;4.70;;;;;;;;;;4971875;28;20034;-62
2022/05/11 07:47:07;;;;;;;12.85;4.15;;;;;;;;;;4988294;28;20175;-62
2022/05/11 07:49:33;;;;;;;13.52;4.53;;;;;;;;;;4989092;28;20475;-62
2022/05/11 07:51:59;;;;;;;12.75;4.32;;;;;;;;;;4989377;28;20046;-63
2022/05/11 07:54:25;;;;;;;14.40;4.93;;;;;;;;;;4988199;28;20286;-63
2022/05/11 08:02:22;;;;;;;12.13;4.13;;;;;;;;;;4988255;28;20042;-63
2022/05/11 08:04:48;;;;;;;13.07;4.50;;;;;;;;;;4971838;28;20347;-63
2022/05/11 08:07:14;;;;;;;12.40;4.38;;;;;;;;;;4987913;28;20042;-63
2022/05/11 08:09:40;;;;;;;21.33;5.50;;;;;;;;;;4987814;28;20267;-63
2022/05/11 08:12:07;;;;;;;12.77;3.88;;;;;;;;;;4988060;28;20042;-63
2022/05/11 08:14:33;;;;;;;15.70;4.13;;;;;;;;;;4991617;28;20447;-63
2022/05/11 08:16:59;;;;;;;18.33;4.30;;;;;;;;;;4991401;28;20510;-63
2022/05/11 08:19:26;;;;;;;12.20;3.58;;;;;;;;;;4991695;28;20058;-63
2022/05/11 08:21:54;;;;;;;12.70;4.32;;;;;;;;;;4975209;28;20049;-63
2022/05/11 08:24:21;;;;;;;13.10;3.80;;;;;;;;;;4992472;28;20081;-62
2022/05/11 08:26:50;;;;;;;12.00;3.90;;;;;;;;;;4992618;28;20045;-62
2022/05/11 08:33:19;;;;;;;11.45;3.78;;;;;;;;;;4992540;28;20515;-63
2022/05/11 08:34:59;;;;;;;13.63;3.78;;;;;;;;;;4990820;28;20092;-63
2022/05/11 08:37:25;;;;;;;13.35;3.58;;;;;;;;;;4975138;28;20069;-63
2022/05/11 08:39:51;;;;;;;11.70;3.30;;;;;;;;;;4990710;28;20209;-62
2022/05/11 08:42:17;;;;;;;11.43;3.40;;;;;;;;;;4990886;28;20050;-63
2022/05/11 08:44:46;;;;;;;10.88;3.53;;;;;;;;;;4991007;28;20050;-62
2022/05/11 08:47:19;;;;;;;9.82;3.13;;;;;;;;;;4974326;28;20034;-62
2022/05/11 08:49:49;;;;;;;11.32;2.97;;;;;;;;;;4974589;28;20054;-63
2022/05/11 08:52:34;;;;;;;13.23;3.50;;;;;;;;;;4991026;28;20050;-62
2022/05/11 08:55:20;;;;;;;11.65;2.67;;;;;;;;;;4992287;28;20096;-64
2022/05/11 08:57:48;;;;;;;11.57;2.90;;;;;;;;;;4967529;28;20531;-63
2022/05/11 09:00:16;;;;;;;15.43;2.80;;;;;;;;;;4990604;28;20512;-63
2022/05/11 09:02:47;;;;;;;8.80;2.40;;;;;;;;;;4990302;28;20092;-63
2022/05/11 09:05:14;;;;;;;9.43;2.78;;;;;;;;;;4990860;28;20043;-63
2022/05/11 09:07:41;;;;;;;13.68;2.78;;;;;;;;;;4990360;28;20034;-62
2022/05/11 09:10:08;;;;;;;13.98;2.67;;;;;;;;;;4990556;28;20054;-62
2022/05/11 09:12:34;;;;;;;14.20;2.92;;;;;;;;;;4990581;28;20046;-62
2022/05/11 09:15:01;;;;;;;12.63;2.85;;;;;;;;;;4990715;28;20566;-63
2022/05/11 09:17:32;;;;;;;10.07;2.20;;;;;;;;;;4990474;28;20042;-61
2022/05/11 09:20:09;;;;;;;14.20;2.90;;;;;;;;;;4990440;28;20042;-63
2022/05/11 09:22:37;;;;;;;12.90;2.42;;;;;;;;;;4991548;28;20092;-62
2022/05/11 09:25:24;;;;;;;12.07;2.60;;;;;;;;;;4990333;28;20164;-62
2022/05/11 09:27:51;;;;;;;11.52;2.45;;;;;;;;;;5006366;28;20512;-62
2022/05/11 09:30:20;;;;;;;12.40;2.20;;;;;;;;;;4991705;28;20122;-62
2022/05/11 09:32:46;;;;;;;8.65;1.77;;;;;;;;;;5013696;28;20464;-63
2022/05/11 09:35:15;;;;;;;12.18;1.98;;;;;;;;;;5021814;28;20045;-63
2022/05/11 09:37:42;;;;;;;9.23;1.10;;;;;;;;;;5009568;28;20250;-62
2022/05/11 09:40:21;;;;;;;11.07;1.63;;;;;;;;;;5018612;28;20057;-61
2022/05/11 09:43:01;;;;;;;11.48;2.17;;;;;;;;;;5021593;28;20046;-62
2022/05/11 09:45:39;;;;;;;7.90;1.75;;;;;;;;;;5019493;28;20053;-60
2022/05/11 09:48:12;;;;;;;7.32;1.30;;;;;;;;;;5009312;28;20088;-61
2022/05/11 09:50:40;;;;;;;8.43;1.63;;;;;;;;;;5016912;28;20492;-61
2022/05/11 09:53:29;;;;;;;13.73;2.00;;;;;;;;;;5014014;28;20045;-61
2022/05/11 09:55:56;;;;;;;12.43;1.27;;;;;;;;;;5018072;28;20132;-62
2022/05/11 09:58:29;;;;;;;8.25;1.60;;;;;;;;;;5014333;28;20528;-61
2022/05/11 10:01:07;;;;;;;10.38;1.55;;;;;;;;;;4995272;28;20088;-61
2022/05/11 10:03:33;;;;;;;7.78;1.20;;;;;;;;;;5009449;28;20231;-61
2022/05/11 10:06:00;;;;;;;11.63;1.50;;;;;;;;;;5021862;28;20110;-62
2022/05/11 10:08:33;;;;;;;11.05;1.50;;;;;;;;;;5000490;28;20038;-62
2022/05/11 10:11:18;;;;;;;9.63;1.73;;;;;;;;;;5022852;28;20045;-61
2022/05/11 10:21:50;;;;;;;14.43;1.92;;;;;;;;;;5010103;28;20096;-62
2022/05/11 10:22:32;;;;;;;7.90;1.35;;;;;;;;;;5015035;28;20054;-62
2022/05/11 10:25:07;;;;;;;7.90;1.20;;;;;;;;;;5019813;28;20438;-63
2022/05/11 10:27:39;;;;;;;8.52;1.60;;;;;;;;;;5021219;28;20049;-62
2022/05/11 10:30:06;;;;;;;10.35;1.40;;;;;;;;;;5021686;28;20052;-63
2022/05/11 10:32:40;;;;;;;8.70;1.35;;;;;;;;;;5012223;28;20073;-62
2022/05/11 10:35:20;;;;;;;10.30;1.50;;;;;;;;;;5008546;28;20065;-63
2022/05/11 10:38:04;;;;;;;8.27;1.50;;;;;;;;;;5014758;28;20045;-63
2022/05/11 10:40:33;;;;;;;8.88;1.30;;;;;;;;;;5012187;28;20037;-61
2022/05/11 10:43:21;;;;;;;9.80;1.45;;;;;;;;;;4994878;28;20057;-62
2022/05/11 10:45:54;;;;;;;11.93;2.25;;;;;;;;;;5013625;28;20037;-61
2022/05/11 10:48:20;;;;;;;11.25;1.80;;;;;;;;;;5012331;28;20080;-61
2022/05/11 10:50:50;;;;;;;9.35;1.70;;;;;;;;;;5020942;28;20050;-61
2022/05/11 10:53:23;;;;;;;8.77;1.88;;;;;;;;;;5008345;28;20053;-61
2022/05/11 10:55:49;;;;;;;12.60;1.67;;;;;;;;;;5020023;28;20060;-64
2022/05/11 10:58:23;;;;;;;11.27;1.75;;;;;;;;;;5018689;28;20052;-62
2022/05/11 11:00:53;;;;;;;10.88;1.48;;;;;;;;;;5019546;28;20073;-63
2022/05/11 11:03:31;;;;;;;7.07;1.52;;;;;;;;;;5022501;28;20034;-62
2022/05/11 11:09:01;;;;;;;5.35;1.10;;;;;;;;;;5006402;28;20038;-63
2022/05/11 11:11:27;;;;;;;8.55;1.40;;;;;;;;;;5024551;28;20073;-62
2022/05/11 11:13:59;;;;;;;9.38;1.50;;;;;;;;;;5023094;28;20041;-63
2022/05/11 11:16:29;;;;;;;6.50;1.58;;;;;;;;;;5010537;28;20053;-62
2022/05/11 11:18:56;;;;;;;7.75;1.33;;;;;;;;;;5017605;28;20041;-62
2022/05/11 11:21:23;;;;;;;6.38;1.00;;;;;;;;;;5023381;28;20054;-64
2022/05/11 11:24:09;;;;;;;8.85;1.20;;;;;;;;;;5019943;28;20057;-63
2022/05/11 11:26:41;;;;;;;9.43;1.55;;;;;;;;;;5010435;28;20507;-64
2022/05/11 11:29:07;;;;;;;8.50;0.88;;;;;;;;;;5022115;28;20045;-64
2022/05/11 11:31:53;;;;;;;8.90;1.63;;;;;;;;;;5016280;28;20046;-63
2022/05/11 11:34:22;;;;;;;8.25;1.27;;;;;;;;;;5009864;28;20038;-62
2022/05/11 11:36:48;;;;;;;6.03;1.00;;;;;;;;;;5007256;28;20659;-64
2022/05/11 11:39:34;;;;;;;9.15;1.48;;;;;;;;;;5020775;28;20057;-63
2022/05/11 11:42:02;;;;;;;6.95;1.45;;;;;;;;;;5009007;28;20400;-63
2022/05/11 11:44:35;;;;;;;11.90;1.70;;;;;;;;;;5010423;28;20048;-62
2022/05/11 11:47:22;;;;;;;9.52;1.27;;;;;;;;;;5022835;28;20080;-64
2022/05/11 11:49:48;;;;;;;7.75;1.30;;;;;;;;;;5015836;28;20041;-62
2022/05/11 11:52:32;;;;;;;10.52;1.50;;;;;;;;;;5030422;28;20041;-63
2022/05/11 11:54:58;;;;;;;7.20;1.00;;;;;;;;;;5023599;28;20050;-63
2022/05/11 11:57:24;;;;;;;10.18;1.80;;;;;;;;;;5012416;28;20128;-62
2022/05/11 11:59:51;;;;;;;10.95;1.58;;;;;;;;;;5012465;28;20042;-63
2022/05/11 12:02:39;;;;;;;13.35;1.88;;;;;;;;;;4989119;28;20293;-63
2022/05/11 12:05:15;;;;;;;9.88;1.20;;;;;;;;;;5019548;28;20105;-63
2022/05/11 12:16:08;;;;;;;10.15;1.30;;;;;;;;;;5017674;28;20077;-63
2022/05/11 12:18:38;;;;;;;7.00;1.10;;;;;;;;;;5011257;28;20107;-63
2022/05/11 12:21:25;;;;;;;7.38;1.00;;;;;;;;;;5011887;28;20042;-63
2022/05/11 12:23:52;;;;;;;7.93;1.20;;;;;;;;;;5016753;28;20043;-63
2022/05/11 12:26:23;;;;;;;8.27;1.33;;;;;;;;;;5018317;28;20715;-64
2022/05/11 12:28:49;;;;;;;11.15;1.80;;;;;;;;;;5012521;28;20061;-63
2022/05/11 12:31:32;;;;;;;12.95;1.60;;;;;;;;;;5025528;28;20399;-63
2022/05/11 12:33:58;;;;;;;7.93;1.45;;;;;;;;;;5009771;28;20117;-64
2022/05/11 12:36:38;;;;;;;8.82;1.00;;;;;;;;;;5001510;28;20450;-63
2022/05/11 12:39:05;;;;;;;9.82;1.17;;;;;;;;;;5019854;28;20045;-63
2022/05/11 12:41:31;;;;;;;9.95;1.30;;;;;;;;;;5018026;28;20046;-63
2022/05/11 12:43:58;;;;;;;10.45;1.15;;;;;;;;;;5015942;28;20116;-64
2022/05/11 12:46:25;;;;;;;5.22;0.68;;;;;;;;;;5023497;28;20042;-64
2022/05/11 12:48:56;;;;;;;7.97;0.70;;;;;;;;;;5016001;28;20046;-62
2022/05/11 12:51:30;;;;;;;4.13;0.55;;;;;;;;;;5015802;28;20112;-64
2022/05/11 12:53:58;;;;;;;6.85;0.73;;;;;;;;;;4995088;28;20085;-63
2022/05/11 12:56:32;;;;;;;6.28;0.80;;;;;;;;;;5015369;28;20495;-63
2022/05/11 12:59:03;;;;;;;6.35;0.52;;;;;;;;;;5022675;28;20056;-63
2022/05/11 13:01:31;;;;;;;6.75;0.60;;;;;;;;;;5023769;28;20514;-63
2022/05/11 13:04:01;;;;;;;9.60;0.80;;;;;;;;;;5000494;28;20148;-63
2022/05/11 13:06:35;;;;;;;3.47;0.50;;;;;;;;;;5016940;28;20117;-62
2022/05/11 13:09:19;;;;;;;6.05;0.63;;;;;;;;;;5011685;28;20335;-63
2022/05/11 13:11:46;;;;;;;7.20;0.60;;;;;;;;;;5017367;28;20056;-64
2022/05/11 13:14:17;;;;;;;6.15;0.60;;;;;;;;;;5010596;28;20060;-63
2022/05/11 13:16:51;;;;;;;5.80;0.35;;;;;;;;;;5021698;28;20042;-63
2022/05/11 13:19:23;;;;;;;5.88;0.43;;;;;;;;;;5014698;28;20045;-63
2022/05/11 13:21:49;;;;;;;3.42;0.30;;;;;;;;;;5017860;28;20048;-63
2022/05/11 13:24:35;;;;;;;6.38;0.40;;;;;;;;;;4997828;28;20046;-63
2022/05/11 13:27:01;;;;;;;3.50;0.35;;;;;;;;;;5020191;28;20043;-61
2022/05/11 13:29:28;;;;;;;5.65;0.40;;;;;;;;;;5015957;28;20038;-62
2022/05/11 13:32:02;;;;;;;3.75;0.30;;;;;;;;;;5015824;28;20072;-62
2022/05/11 13:34:30;;;;;;;3.00;0.40;;;;;;;;;;5018810;28;20084;-61
2022/05/11 13:36:57;;;;;;;3.20;0.47;;;;;;;;;;5020729;28;20478;-61
2022/05/11 13:39:34;;;;;;;4.00;0.40;;;;;;;;;;5026650;28;20152;-63
2022/05/11 13:42:05;;;;;;;4.07;0.30;;;;;;;;;;5004351;28;20038;-61
2022/05/11 13:44:51;;;;;;;6.28;0.50;;;;;;;;;;5009391;28;20078;-61
2022/05/11 13:50:12;;;;;;;5.38;0.40;;;;;;;;;;5013498;28;20047;-61
2022/05/11 13:52:40;;;;;;;5.30;0.60;;;;;;;;;;5017174;28;20053;-61
2022/05/11 13:55:07;;;;;;;4.10;0.60;;;;;;;;;;5009333;28;20132;-62
2022/05/11 13:57:34;;;;;;;7.88;0.52;;;;;;;;;;5015021;28;20041;-62
2022/05/11 14:00:29;;;;;;;5.97;0.68;;;;;;;;;;5026075;28;20454;-62
2022/05/11 14:02:56;;;;;;;6.68;0.50;;;;;;;;;;5003826;28;20114;-63
2022/05/11 14:05:23;;;;;;;4.80;0.68;;;;;;;;;;5024561;28;20033;-61
2022/05/11 14:07:49;;;;;;;4.57;0.70;;;;;;;;;;5013992;28;20116;-61
2022/05/11 14:10:15;;;;;;;5.55;0.60;;;;;;;;;;5009784;28;20134;-61
2022/05/11 14:12:41;;;;;;;5.72;0.40;;;;;;;;;;5016105;28;20091;-62
2022/05/11 14:15:07;;;;;;;5.55;0.55;;;;;;;;;;5021875;28;20125;-62
2022/05/11 14:17:41;;;;;;;4.78;0.50;;;;;;;;;;5009704;28;20143;-64
2022/05/11 14:20:08;;;;;;;4.82;0.60;;;;;;;;;;5007595;28;20042;-62
2022/05/11 14:22:37;;;;;;;7.22;0.70;;;;;;;;;;5015857;28;20042;-62
2022/05/11 14:25:04;;;;;;;6.53;0.75;;;;;;;;;;5023560;28;20045;-60
2022/05/11 14:27:30;;;;;;;4.80;0.50;;;;;;;;;;5014886;28;20030;-62
2022/05/11 14:29:56;;;;;;;8.98;0.82;;;;;;;;;;5025683;28;20046;-62
2022/05/11 14:32:25;;;;;;;5.00;0.52;;;;;;;;;;5017869;28;20042;-63
2022/05/11 14:34:51;;;;;;;7.85;0.77;;;;;;;;;;5013833;28;20484;-62
2022/05/11 14:37:17;;;;;;;11.30;1.13;;;;;;;;;;5014367;28;20053;-62
2022/05/11 14:39:45;;;;;;;10.05;1.27;;;;;;;;;;5011430;28;20092;-62
2022/05/11 14:42:11;;;;;;;6.65;0.70;;;;;;;;;;5017095;28;20436;-61
2022/05/11 14:44:37;;;;;;;6.80;1.10;;;;;;;;;;5013643;28;20030;-63
2022/05/11 14:47:03;;;;;;;8.93;1.27;;;;;;;;;;5022327;28;20152;-61
2022/05/11 14:49:30;;;;;;;9.93;1.23;;;;;;;;;;4992207;28;20084;-62
2022/05/11 14:51:56;;;;;;;8.52;1.10;;;;;;;;;;4991916;28;20117;-62
2022/05/11 14:54:22;;;;;;;8.02;1.30;;;;;;;;;;5007070;28;20034;-62
2022/05/11 15:01:55;;;;;;;12.85;1.50;;;;;;;;;;5008320;28;20436;-62
2022/05/11 15:02:20;;;;;;;11.15;1.08;;;;;;;;;;4994789;28;20153;-61
2022/05/11 15:04:47;;;;;;;6.57;1.00;;;;;;;;;;5009704;28;20100;-61
2022/05/11 15:07:15;;;;;;;7.43;1.02;;;;;;;;;;5008251;28;20042;-62
2022/05/11 15:09:42;;;;;;;10.15;1.20;;;;;;;;;;5007917;28;20041;-62
2022/05/11 15:14:53;;;;;;;7.00;1.00;;;;;;;;;;5008539;28;20500;-61
2022/05/11 15:17:23;;;;;;;8.55;1.00;;;;;;;;;;5008066;28;20128;-62
2022/05/11 15:19:49;;;;;;;7.35;1.15;;;;;;;;;;5009071;28;20033;-62
2022/05/11 15:22:16;;;;;;;8.80;0.98;;;;;;;;;;5011177;28;20496;-61
2022/05/11 15:24:42;;;;;;;7.50;0.90;;;;;;;;;;5015658;28;20060;-61
2022/05/11 15:27:09;;;;;;;7.10;0.88;;;;;;;;;;5015786;28;20543;-61
2022/05/11 15:29:35;;;;;;;7.47;0.85;;;;;;;;;;5014111;28;20121;-61
2022/05/11 15:32:04;;;;;;;8.20;0.70;;;;;;;;;;5015846;28;20575;-61
2022/05/11 15:34:32;;;;;;;5.15;0.70;;;;;;;;;;5015453;28;20048;-62